createdAt,value
2023-01-29T00:00:24.790Z,99463.44
2023-01-29T00:02:52.311Z,99471.69
2023-01-29T00:05:27.760Z,99473.28
2023-01-29T00:07:56.916Z,99462.53
2023-01-29T00:10:25.354Z,99462.72
2023-01-29T00:12:52.040Z,99466.06
2023-01-29T00:15:20.223Z,99469.50
2023-01-29T00:17:46.871Z,99469.50
2023-01-29T00:20:13.571Z,99466.59
2023-01-29T00:22:40.172Z,99463.72
2023-01-29T00:25:07.960Z,99468.38
2023-01-29T00:27:34.433Z,99465.50
2023-01-29T00:30:12.875Z,99457.09
2023-01-29T00:32:41.429Z,99452.44
2023-01-29T00:35:09.111Z,99446.94
2023-01-29T00:37:36.098Z,99443.78
2023-01-29T00:40:12.055Z,99446.38
2023-01-29T00:42:57.419Z,99445.53
2023-01-29T00:45:26.479Z,99454.19
2023-01-29T00:47:53.230Z,99446.44
2023-01-29T00:50:22.808Z,99442.31
2023-01-29T00:52:59.150Z,99441.72
2023-01-29T00:55:25.581Z,99444.25
2023-01-29T00:57:52.003Z,99444.63
2023-01-29T01:00:19.488Z,99446.38
2023-01-29T01:03:04.739Z,99437.91
2023-01-29T01:05:31.298Z,99441.34
2023-01-29T01:07:58.616Z,99437.31
2023-01-29T01:10:30.654Z,99440.88
2023-01-29T01:13:06.037Z,99441.69
2023-01-29T01:15:39.561Z,99427.22
2023-01-29T01:18:08.319Z,99427.88
2023-01-29T01:20:35.857Z,99433.91
2023-01-29T01:23:02.294Z,99435.44
2023-01-29T01:25:31.130Z,99430.16
2023-01-29T01:30:26.304Z,99441.50
2023-01-29T01:32:53.019Z,99440.19
2023-01-29T01:35:19.500Z,99449.69
2023-01-29T01:37:45.952Z,99447.69
2023-01-29T01:40:20.787Z,99441.13
2023-01-29T01:42:52.277Z,99441.00
2023-01-29T01:45:22.796Z,99438.59
2023-01-29T01:47:54.524Z,99435.44
2023-01-29T01:50:29.399Z,99441.25
2023-01-29T01:53:00.802Z,99435.81
2023-01-29T01:55:29.624Z,99441.00
2023-01-29T01:58:03.322Z,99439.41
2023-01-29T02:00:29.778Z,99442.25
2023-01-29T02:03:15.006Z,99438.88
2023-01-29T02:06:00.844Z,99436.28
2023-01-29T02:08:57.895Z,99431.19
2023-01-29T02:11:25.725Z,99433.63
2023-01-29T02:13:53.722Z,99437.66
2023-01-29T02:16:21.957Z,99436.81
2023-01-29T02:18:49.838Z,99433.69
2023-01-29T02:21:44.403Z,99429.56
2023-01-29T02:24:26.071Z,99431.38
2023-01-29T02:27:07.801Z,99414.59
2023-01-29T02:29:47.261Z,99413.13
2023-01-29T02:32:31.166Z,99416.69
2023-01-29T02:35:27.722Z,99414.25
2023-01-29T02:38:11.266Z,99417.53
2023-01-29T02:40:45.493Z,99419.09
2023-01-29T02:43:49.830Z,99429.31
2023-01-29T02:46:36.777Z,99417.91
2023-01-29T02:49:24.920Z,99414.59
2023-01-29T02:52:32.101Z,99424.97
2023-01-29T02:55:10.414Z,99420.91
2023-01-29T02:57:40.649Z,99419.34
2023-01-29T03:00:14.937Z,99406.69
2023-01-29T03:03:00.949Z,99414.06
2023-01-29T03:05:57.084Z,99421.88
2023-01-29T03:08:37.141Z,99421.22
2023-01-29T03:11:06.338Z,99432.97
2023-01-29T03:13:45.497Z,99437.59
2023-01-29T03:16:27.215Z,99425.34
2023-01-29T03:19:17.598Z,99432.78
2023-01-29T03:21:51.641Z,99430.53
2023-01-29T03:24:48.342Z,99433.69
2023-01-29T03:27:37.588Z,99425.69
2023-01-29T03:30:25.578Z,99423.94
2023-01-29T03:32:54.057Z,99438.16
2023-01-29T03:35:33.414Z,99425.81
2023-01-29T03:38:02.986Z,99430.91
2023-01-29T03:40:46.150Z,99434.97
2023-01-29T03:43:38.335Z,99428.13
2023-01-29T03:46:23.150Z,99434.22
2023-01-29T03:49:08.240Z,99436.88
2023-01-29T03:51:51.646Z,99448.31
2023-01-29T03:54:33.419Z,99441.28
2023-01-29T03:57:24.383Z,99440.47
2023-01-29T04:00:22.990Z,99437.03
2023-01-29T04:03:17.275Z,99448.56
2023-01-29T04:05:55.688Z,99457.94
2023-01-29T04:08:29.138Z,99451.22
2023-01-29T04:10:59.523Z,99456.06
2023-01-29T04:13:27.422Z,99456.94
2023-01-29T04:15:59.152Z,99457.06
2023-01-29T04:18:25.657Z,99444.63
2023-01-29T04:20:52.945Z,99432.78
2023-01-29T04:23:31.045Z,99434.41
2023-01-29T04:26:11.862Z,99445.47
2023-01-29T04:29:12.716Z,99441.13
2023-01-29T04:32:24.486Z,99441.41
2023-01-29T04:35:02.524Z,99446.38
2023-01-29T04:37:40.204Z,99458.13
2023-01-29T04:40:34.599Z,99444.88
2023-01-29T04:43:13.172Z,99444.88
2023-01-29T04:46:15.445Z,99441.41
2023-01-29T04:48:59.805Z,99439.69
2023-01-29T04:51:42.842Z,99437.03
2023-01-29T04:54:18.503Z,99431.13
2023-01-29T04:56:55.534Z,99424.50
2023-01-29T04:59:33.409Z,99426.97
2023-01-29T05:02:02.548Z,99416.03
2023-01-29T05:04:32.727Z,99420.31
2023-01-29T05:07:04.438Z,99428.66
2023-01-29T05:09:32.827Z,99425.34
2023-01-29T05:12:00.977Z,99419.53
2023-01-29T05:14:30.547Z,99416.19
2023-01-29T05:17:02.346Z,99422.03
2023-01-29T05:19:28.810Z,99412.09
2023-01-29T05:21:55.529Z,99407.88
2023-01-29T05:24:26.636Z,99402.00
2023-01-29T05:27:13.206Z,99403.03
2023-01-29T05:29:44.967Z,99406.97
2023-01-29T05:32:11.417Z,99399.34
2023-01-29T05:34:37.932Z,99393.91
2023-01-29T05:37:04.727Z,99374.44
2023-01-29T05:39:31.208Z,99372.69
2023-01-29T05:41:57.709Z,99372.56
2023-01-29T05:44:24.130Z,99368.13
2023-01-29T05:46:51.134Z,99370.72
2023-01-29T05:49:18.677Z,99375.75
2023-01-29T05:51:45.157Z,99374.06
2023-01-29T05:54:14.716Z,99386.72
2023-01-29T05:56:41.146Z,99384.34
2023-01-29T05:59:07.553Z,99386.72
2023-01-29T06:01:34.144Z,99396.81
2023-01-29T06:04:00.713Z,99393.47
2023-01-29T06:06:27.162Z,99399.53
2023-01-29T06:08:53.570Z,99389.44
2023-01-29T06:11:20.632Z,99395.47
2023-01-29T06:13:47.848Z,99390.28
2023-01-29T06:16:15.058Z,99383.50
2023-01-29T06:18:42.379Z,99386.91
2023-01-29T06:21:12.518Z,99397.00
2023-01-29T06:23:39.485Z,99396.28
2023-01-29T06:26:09.474Z,99404.84
2023-01-29T06:28:36.067Z,99401.53
2023-01-29T06:31:23.703Z,99404.31
2023-01-29T06:33:51.003Z,99408.44
2023-01-29T06:36:17.503Z,99409.94
2023-01-29T06:38:43.925Z,99411.75
2023-01-29T06:41:12.537Z,99406.63
2023-01-29T06:43:39.463Z,99401.53
2023-01-29T06:46:08.432Z,99401.59
2023-01-29T06:48:37.988Z,99402.25
2023-01-29T06:51:06.803Z,99414.19
2023-01-29T06:53:34.455Z,99406.94
2023-01-29T06:56:00.965Z,99411.16
2023-01-29T06:58:27.394Z,99415.78
2023-01-29T07:00:53.944Z,99412.66
2023-01-29T07:03:20.448Z,99416.91
2023-01-29T07:05:51.978Z,99414.19
2023-01-29T07:08:18.931Z,99421.91
2023-01-29T07:10:45.567Z,99417.75
2023-01-29T07:13:12.023Z,99419.31
2023-01-29T07:15:38.447Z,99417.56
2023-01-29T07:18:11.923Z,99415.13
2023-01-29T07:20:40.918Z,99405.97
2023-01-29T07:23:11.061Z,99414.59
2023-01-29T07:25:37.782Z,99413.91
2023-01-29T07:28:04.683Z,99413.19
2023-01-29T07:30:31.183Z,99411.59
2023-01-29T07:33:07.332Z,99416.94
2023-01-29T07:35:42.051Z,99414.22
2023-01-29T07:38:10.448Z,99421.06
2023-01-29T07:40:41.568Z,99431.31
2023-01-29T07:43:10.439Z,99434.97
2023-01-29T07:45:38.757Z,99432.00
2023-01-29T07:48:20.546Z,99434.59
2023-01-29T07:50:55.527Z,99443.38
2023-01-29T07:53:22.092Z,99443.38
2023-01-29T07:55:48.637Z,99445.78
2023-01-29T07:58:15.028Z,99455.16
2023-01-29T08:00:41.531Z,99460.38
2023-01-29T08:03:12.706Z,99458.00
2023-01-29T08:05:39.137Z,99456.31
2023-01-29T08:08:07.451Z,99451.81
2023-01-29T08:10:35.847Z,99452.34
2023-01-29T08:13:03.358Z,99442.25
2023-01-29T08:15:30.066Z,99436.25
2023-01-29T08:17:58.252Z,99440.25
2023-01-29T08:20:24.905Z,99441.16
2023-01-29T08:22:59.382Z,99442.31
2023-01-29T08:25:26.181Z,99434.13
2023-01-29T08:27:52.931Z,99448.63
2023-01-29T08:30:19.459Z,99446.50
2023-01-29T08:32:45.872Z,99442.59
2023-01-29T08:35:12.293Z,99447.09
2023-01-29T08:37:38.782Z,99452.59
2023-01-29T08:40:05.920Z,99454.69
2023-01-29T08:42:32.351Z,99458.06
2023-01-29T08:44:58.779Z,99463.13
2023-01-29T08:47:25.159Z,99465.09
2023-01-29T08:49:51.561Z,99454.75
2023-01-29T08:52:18.368Z,99457.63
2023-01-29T08:54:45.097Z,99459.13
2023-01-29T08:57:11.558Z,99460.66
2023-01-29T08:59:39.548Z,99458.66
2023-01-29T09:02:06.057Z,99472.03
2023-01-29T09:04:32.456Z,99472.81
2023-01-29T09:06:58.904Z,99478.56
2023-01-29T09:09:25.370Z,99471.66
2023-01-29T09:11:53.044Z,99466.66
2023-01-29T09:14:19.570Z,99466.03
2023-01-29T09:16:46.041Z,99459.59
2023-01-29T09:19:12.527Z,99464.19
2023-01-29T09:21:38.901Z,99466.25
2023-01-29T09:24:05.837Z,99448.50
2023-01-29T09:26:32.551Z,99449.44
2023-01-29T09:28:59.032Z,99453.13
2023-01-29T09:31:25.544Z,99447.22
2023-01-29T09:33:52.055Z,99436.38
2023-01-29T09:36:18.492Z,99437.47
2023-01-29T09:38:47.687Z,99428.94
2023-01-29T09:41:25.193Z,99425.97
2023-01-29T09:44:00.446Z,99417.63
2023-01-29T09:46:41.856Z,99407.66
2023-01-29T09:49:31.511Z,99398.56
2023-01-29T09:52:20.673Z,99409.06
2023-01-29T09:55:05.672Z,99408.22
2023-01-29T09:57:54.633Z,99404.81
2023-01-29T10:00:34.349Z,99411.09
2023-01-29T10:03:28.643Z,99412.44
2023-01-29T10:06:32.961Z,99424.66
2023-01-29T10:09:17.577Z,99437.84
2023-01-29T10:12:05.440Z,99436.22
2023-01-29T10:14:37.976Z,99435.59
2023-01-29T10:17:42.042Z,99439.00
2023-01-29T10:20:39.012Z,99440.44
2023-01-29T10:23:48.000Z,99443.81
2023-01-29T10:26:14.485Z,99443.13
2023-01-29T10:28:48.424Z,99455.28
2023-01-29T10:31:29.922Z,99454.69
2023-01-29T10:34:02.913Z,99457.97
2023-01-29T10:36:49.353Z,99449.31
2023-01-29T10:39:21.055Z,99441.88
2023-01-29T10:42:08.891Z,99439.50
2023-01-29T10:45:07.393Z,99435.75
2023-01-29T10:47:52.819Z,99433.22
2023-01-29T10:50:39.699Z,99434.47
2023-01-29T10:53:30.253Z,99418.72
2023-01-29T10:56:21.783Z,99402.72
2023-01-29T10:58:56.982Z,99402.59
2023-01-29T11:01:23.802Z,99398.69
2023-01-29T11:04:00.789Z,99387.38
2023-01-29T11:06:35.278Z,99380.50
2023-01-29T11:09:06.120Z,99384.06
2023-01-29T11:11:45.172Z,99381.28
2023-01-29T11:14:33.395Z,99380.63
2023-01-29T11:16:59.933Z,99356.84
2023-01-29T11:19:44.043Z,99361.78
2023-01-29T11:22:24.008Z,99355.25
2023-01-29T11:25:15.440Z,99346.28
2023-01-29T11:27:47.819Z,99344.84
2023-01-29T11:30:26.712Z,99338.34
2023-01-29T11:33:05.501Z,99328.38
2023-01-29T11:35:33.333Z,99320.88
2023-01-29T11:38:19.050Z,99322.06
2023-01-29T11:40:45.719Z,99327.75
2023-01-29T11:43:13.643Z,99333.78
2023-01-29T11:45:40.717Z,99328.78
2023-01-29T11:48:21.016Z,99315.03
2023-01-29T11:51:00.688Z,99309.06
2023-01-29T11:53:36.527Z,99301.59
2023-01-29T11:56:27.015Z,99293.88
2023-01-29T11:58:56.049Z,99286.47
2023-01-29T12:01:35.047Z,99283.94
2023-01-29T12:04:04.303Z,99289.09
2023-01-29T12:06:36.290Z,99287.09
2023-01-29T12:09:10.898Z,99285.97
2023-01-29T12:11:37.669Z,99281.19
2023-01-29T12:14:06.144Z,99274.38
2023-01-29T12:16:54.383Z,99271.81
2023-01-29T12:19:36.051Z,99271.47
2023-01-29T12:22:41.879Z,99266.31
2023-01-29T12:25:25.598Z,99265.03
2023-01-29T12:28:09.582Z,99261.44
2023-01-29T12:30:59.626Z,99249.59
2023-01-29T12:33:51.287Z,99245.41
2023-01-29T12:36:24.998Z,99246.75
2023-01-29T12:38:51.963Z,99240.84
2023-01-29T12:41:31.512Z,99238.28
2023-01-29T12:44:05.636Z,99232.34
2023-01-29T12:46:38.895Z,99232.75
2023-01-29T12:49:15.645Z,99222.69
2023-01-29T12:52:15.247Z,99222.84
2023-01-29T12:54:50.004Z,99216.88
2023-01-29T12:57:42.380Z,99212.66
2023-01-29T13:00:23.037Z,99214.53
2023-01-29T13:02:52.575Z,99212.91
2023-01-29T13:05:24.894Z,99215.41
2023-01-29T13:08:03.029Z,99212.72
2023-01-29T13:10:36.775Z,99214.22
2023-01-29T13:13:22.049Z,99203.09
2023-01-29T13:15:48.929Z,99216.50
2023-01-29T13:18:37.589Z,99202.94
2023-01-29T13:21:05.141Z,99194.25
2023-01-29T13:23:39.622Z,99187.56
2023-01-29T13:26:06.347Z,99177.16
2023-01-29T13:28:33.164Z,99180.56
2023-01-29T13:31:24.745Z,99188.44
2023-01-29T13:34:17.839Z,99189.88
2023-01-29T13:36:46.914Z,99194.75
2023-01-29T13:39:22.845Z,99195.44
2023-01-29T13:41:50.932Z,99189.47
2023-01-29T13:44:26.843Z,99195.22
2023-01-29T13:47:27.311Z,99197.13
2023-01-29T13:50:06.621Z,99201.44
2023-01-29T13:52:33.988Z,99193.94
2023-01-29T13:55:19.153Z,99189.03
2023-01-29T13:57:48.446Z,99187.94
2023-01-29T14:00:20.992Z,99196.25
2023-01-29T14:03:13.960Z,99195.50
2023-01-29T14:06:00.530Z,99198.06
2023-01-29T14:08:39.014Z,99200.81
2023-01-29T14:11:17.592Z,99200.47
2023-01-29T14:13:49.231Z,99188.16
2023-01-29T14:16:15.626Z,99179.09
2023-01-29T14:18:48.623Z,99171.78
2023-01-29T14:21:25.154Z,99176.13
2023-01-29T14:23:55.996Z,99176.19
2023-01-29T14:26:48.788Z,99176.94
2023-01-29T14:29:33.918Z,99169.44
2023-01-29T14:32:07.103Z,99166.31
2023-01-29T14:34:44.104Z,99164.75
2023-01-29T14:37:16.620Z,99163.06
2023-01-29T14:39:45.297Z,99165.53
2023-01-29T14:42:35.903Z,99170.56
2023-01-29T14:45:21.123Z,99165.38
2023-01-29T14:47:47.505Z,99153.44
2023-01-29T14:50:29.164Z,99148.81
2023-01-29T14:53:31.313Z,99152.84
2023-01-29T14:56:09.992Z,99147.97
2023-01-29T14:58:42.339Z,99148.53
2023-01-29T15:01:26.681Z,99144.13
2023-01-29T15:04:00.547Z,99144.97
2023-01-29T15:06:48.194Z,99155.13
2023-01-29T15:09:36.549Z,99155.78
2023-01-29T15:12:15.893Z,99156.84
2023-01-29T15:14:52.243Z,99159.16
2023-01-29T15:17:26.620Z,99155.56
2023-01-29T15:19:53.117Z,99144.50
2023-01-29T15:22:21.984Z,99145.16
2023-01-29T15:25:07.268Z,99132.50
2023-01-29T15:27:34.221Z,99129.91
2023-01-29T15:30:04.045Z,99126.47
2023-01-29T15:32:36.143Z,99128.16
2023-01-29T15:35:08.894Z,99123.78
2023-01-29T15:37:37.963Z,99115.34
2023-01-29T15:40:19.079Z,99122.03
2023-01-29T15:42:48.827Z,99120.91
2023-01-29T15:45:30.966Z,99116.63
2023-01-29T15:48:17.745Z,99112.34
2023-01-29T15:50:45.259Z,99119.75
2023-01-29T15:53:19.507Z,99116.22
2023-01-29T15:55:51.787Z,99111.16
2023-01-29T15:58:29.817Z,99114.34
2023-01-29T16:00:58.971Z,99111.69
2023-01-29T16:03:28.332Z,99108.97
2023-01-29T16:05:55.454Z,99093.75
2023-01-29T16:08:26.637Z,99090.19
2023-01-29T16:11:01.668Z,99093.53
2023-01-29T16:13:32.257Z,99096.69
2023-01-29T16:16:00.830Z,99094.75
2023-01-29T16:18:37.468Z,99090.31
2023-01-29T16:21:09.579Z,99086.09
2023-01-29T16:23:42.073Z,99095.97
2023-01-29T16:26:15.201Z,99096.81
2023-01-29T16:28:46.249Z,99094.94
2023-01-29T16:31:20.824Z,99096.34
2023-01-29T16:33:47.666Z,99094.56
2023-01-29T16:36:18.836Z,99092.88
2023-01-29T16:38:59.979Z,99095.25
2023-01-29T16:41:38.171Z,99095.91
2023-01-29T16:44:31.541Z,99096.72
2023-01-29T16:47:20.607Z,99099.94
2023-01-29T16:49:53.018Z,99097.25
2023-01-29T16:52:19.551Z,99096.31
2023-01-29T16:54:45.985Z,99090.31
2023-01-29T16:57:18.174Z,99090.97
2023-01-29T16:59:45.763Z,99091.69
2023-01-29T17:02:26.599Z,99094.22
2023-01-29T17:04:57.397Z,99095.81
2023-01-29T17:07:24.009Z,99084.78
2023-01-29T17:09:54.579Z,99099.00
2023-01-29T17:12:23.898Z,99091.31
2023-01-29T17:15:02.543Z,99084.47
2023-01-29T17:17:34.443Z,99091.06
2023-01-29T17:20:16.091Z,99090.25
2023-01-29T17:22:42.816Z,99093.69
2023-01-29T17:25:13.070Z,99088.31
2023-01-29T17:27:42.008Z,99085.69
2023-01-29T17:30:16.720Z,99075.34
2023-01-29T17:32:44.970Z,99078.59
2023-01-29T17:35:15.412Z,99081.13
2023-01-29T17:37:42.132Z,99078.34
2023-01-29T17:40:18.429Z,99078.19
2023-01-29T17:42:45.213Z,99083.13
2023-01-29T17:45:11.631Z,99086.44
2023-01-29T17:47:38.115Z,99094.78
2023-01-29T17:50:17.170Z,99092.22
2023-01-29T17:52:43.595Z,99092.16
2023-01-29T17:55:09.989Z,99092.06
2023-01-29T17:57:36.433Z,99090.38
2023-01-29T18:00:05.147Z,99097.00
2023-01-29T18:02:31.747Z,99091.84
2023-01-29T18:04:58.168Z,99097.72
2023-01-29T18:07:24.640Z,99091.63
2023-01-29T18:09:51.065Z,99088.91
2023-01-29T18:12:17.610Z,99084.53
2023-01-29T18:14:44.041Z,99090.44
2023-01-29T18:17:10.428Z,99088.63
2023-01-29T18:19:36.931Z,99091.19
2023-01-29T18:22:03.326Z,99102.97
2023-01-29T18:24:31.293Z,99095.97
2023-01-29T18:26:57.784Z,99095.88
2023-01-29T18:29:29.432Z,99095.75
2023-01-29T18:31:56.329Z,99096.63
2023-01-29T18:34:22.871Z,99095.63
2023-01-29T18:36:50.164Z,99097.13
2023-01-29T18:39:20.744Z,99103.53
2023-01-29T18:41:47.161Z,99101.91
2023-01-29T18:44:13.618Z,99097.69
2023-01-29T18:46:40.019Z,99104.34
2023-01-29T18:49:06.640Z,99104.28
2023-01-29T18:51:33.410Z,99099.16
2023-01-29T18:53:59.845Z,99095.06
2023-01-29T18:56:26.467Z,99106.06
2023-01-29T18:58:56.168Z,99106.72
2023-01-29T19:01:23.261Z,99102.69
2023-01-29T19:03:52.779Z,99103.19
2023-01-29T19:06:19.424Z,99103.19
2023-01-29T19:08:47.355Z,99098.03
2023-01-29T19:11:14.149Z,99101.34
2023-01-29T19:13:42.524Z,99091.25
2023-01-29T19:16:10.413Z,99087.13
2023-01-29T19:18:37.332Z,99082.78
2023-01-29T19:21:12.696Z,99067.66
2023-01-29T19:23:40.128Z,99070.75
2023-01-29T19:26:10.747Z,99084.03
2023-01-29T19:28:37.277Z,99078.16
2023-01-29T19:31:03.964Z,99082.34
2023-01-29T19:33:30.488Z,99074.78
2023-01-29T19:35:58.214Z,99070.47
2023-01-29T19:38:25.250Z,99068.78
2023-01-29T19:40:52.449Z,99063.75
2023-01-29T19:43:19.318Z,99057.88
2023-01-29T19:45:50.996Z,99046.16
2023-01-29T19:48:21.797Z,99041.28
2023-01-29T19:51:04.379Z,99043.97
2023-01-29T19:53:31.456Z,99045.66
2023-01-29T19:56:03.287Z,99042.56
2023-01-29T19:58:30.069Z,99044.38
2023-01-29T20:01:12.126Z,99048.00
2023-01-29T20:03:38.588Z,99044.13
2023-01-29T20:06:06.266Z,99039.16
2023-01-29T20:08:33.619Z,99030.06
2023-01-29T20:11:00.201Z,99025.25
2023-01-29T20:13:26.863Z,99027.16
2023-01-29T20:15:53.654Z,99030.59
2023-01-29T20:18:20.268Z,99023.88
2023-01-29T20:20:49.403Z,99025.50
2023-01-29T20:23:37.142Z,99022.16
2023-01-29T20:26:07.607Z,99014.44
2023-01-29T20:28:35.270Z,99014.47
2023-01-29T20:31:02.336Z,99022.72
2023-01-29T20:33:29.179Z,99024.50
2023-01-29T20:35:57.577Z,99025.19
2023-01-29T20:38:26.251Z,99018.25
2023-01-29T20:40:52.816Z,99025.03
2023-01-29T20:43:19.401Z,99026.59
2023-01-29T20:45:46.148Z,99024.06
2023-01-29T20:48:12.705Z,99022.34
2023-01-29T20:50:39.267Z,99021.50
2023-01-29T20:53:06.577Z,99018.03
2023-01-29T20:55:33.055Z,99018.72
2023-01-29T20:58:05.449Z,99016.09
2023-01-29T21:00:33.453Z,99018.50
2023-01-29T21:02:59.948Z,99015.25
2023-01-29T21:05:26.377Z,99021.69
2023-01-29T21:07:52.806Z,99016.72
2023-01-29T21:10:21.579Z,99011.00
2023-01-29T21:12:48.060Z,99013.00
2023-01-29T21:15:14.535Z,99007.84
2023-01-29T21:17:40.927Z,99014.50
2023-01-29T21:20:08.303Z,99012.78
2023-01-29T21:22:34.753Z,99017.94
2023-01-29T21:25:01.165Z,99010.31
2023-01-29T21:27:27.565Z,99008.53
2023-01-29T21:29:54.058Z,99011.97
2023-01-29T21:32:21.020Z,99016.19
2023-01-29T21:34:47.408Z,99010.19
2023-01-29T21:37:13.889Z,99013.56
2023-01-29T21:39:40.331Z,99012.56
2023-01-29T21:42:27.114Z,99012.81
2023-01-29T21:44:56.446Z,99017.75
2023-01-29T21:47:22.971Z,99019.38
2023-01-29T21:49:49.480Z,99015.13
2023-01-29T21:52:16.010Z,99014.28
2023-01-29T21:54:45.749Z,99003.53
2023-01-29T21:57:14.992Z,99002.75
2023-01-29T21:59:42.018Z,98998.59
2023-01-29T22:02:17.920Z,98996.97
2023-01-29T22:04:44.413Z,98996.91
2023-01-29T22:07:13.568Z,98995.28
2023-01-29T22:09:40.563Z,98984.53
2023-01-29T22:12:08.778Z,98982.75
2023-01-29T22:14:35.185Z,98978.63
2023-01-29T22:17:01.731Z,98973.59
2023-01-29T22:19:29.387Z,98967.59
2023-01-29T22:21:56.388Z,98966.72
2023-01-29T22:24:23.427Z,98957.53
2023-01-29T22:26:50.068Z,98940.81
2023-01-29T22:29:19.598Z,98929.00
2023-01-29T22:31:49.055Z,98915.75
2023-01-29T22:34:15.607Z,98905.88
2023-01-29T22:36:42.088Z,98892.31
2023-01-29T22:39:09.271Z,98883.91
2023-01-29T22:41:36.033Z,98888.97
2023-01-29T22:44:02.493Z,98888.75
2023-01-29T22:46:29.063Z,98875.34
2023-01-29T22:48:55.541Z,98868.63
2023-01-29T22:51:21.969Z,98869.31
2023-01-29T22:53:54.734Z,98858.28
2023-01-29T22:56:26.551Z,98848.84
2023-01-29T22:58:54.812Z,98846.28
2023-01-29T23:01:23.835Z,98848.00
2023-01-29T23:03:50.343Z,98842.84
2023-01-29T23:06:17.490Z,98849.50
2023-01-29T23:08:44.573Z,98849.44
2023-01-29T23:11:14.700Z,98851.97
2023-01-29T23:13:54.844Z,98849.28
2023-01-29T23:16:26.779Z,98844.25
2023-01-29T23:18:55.506Z,98834.06
2023-01-29T23:21:24.938Z,98830.56
2023-01-29T23:24:04.028Z,98841.66
2023-01-29T23:26:49.307Z,98822.19
2023-01-29T23:29:18.444Z,98821.94
2023-01-29T23:31:45.233Z,98810.19
2023-01-29T23:34:11.793Z,98810.91
2023-01-29T23:36:38.230Z,98807.59
2023-01-29T23:39:05.784Z,98799.94
2023-01-29T23:41:32.210Z,98800.94
2023-01-29T23:43:58.672Z,98802.78
2023-01-29T23:46:25.311Z,98789.38
2023-01-29T23:48:51.895Z,98793.56
2023-01-29T23:51:18.397Z,98791.91
2023-01-29T23:53:44.935Z,98787.88
2023-01-29T23:56:11.658Z,98777.81
2023-01-29T23:58:38.183Z,98771.09
